sensor_id;sensor_type;location;lat;lon;timestamp;P1;durP1;ratioP1;P2;durP2;ratioP2
67979;SDS011;54760;47.490;19.030;2022-11-18T00:01:12;31.35;;;18.87;;
67979;SDS011;54760;47.490;19.030;2022-11-18T00:03:39;30.25;;;18.20;;
67979;SDS011;54760;47.490;19.030;2022-11-18T00:06:06;31.12;;;18.80;;
67979;SDS011;54760;47.490;19.030;2022-11-18T00:08:34;27.52;;;18.48;;
67979;SDS011;54760;47.490;19.030;2022-11-18T00:11:03;27.35;;;17.83;;
67979;SDS011;54760;47.490;19.030;2022-11-18T00:13:30;34.17;;;19.27;;
67979;SDS011;54760;47.490;19.030;2022-11-18T00:16:14;30.40;;;19.45;;
67979;SDS011;54760;47.490;19.030;2022-11-18T00:18:39;28.77;;;18.77;;
67979;SDS011;54760;47.490;19.030;2022-11-18T00:21:05;27.75;;;18.10;;
67979;SDS011;54760;47.490;19.030;2022-11-18T00:23:33;28.05;;;18.50;;
67979;SDS011;54760;47.490;19.030;2022-11-18T00:26:05;28.83;;;18.20;;
67979;SDS011;54760;47.490;19.030;2022-11-18T00:28:31;28.30;;;17.40;;
67979;SDS011;54760;47.490;19.030;2022-11-18T00:31:01;30.75;;;18.35;;
67979;SDS011;54760;47.490;19.030;2022-11-18T00:33:28;28.30;;;18.02;;
67979;SDS011;54760;47.490;19.030;2022-11-18T00:35:53;26.90;;;17.65;;
67979;SDS011;54760;47.490;19.030;2022-11-18T00:38:19;27.85;;;18.00;;
67979;SDS011;54760;47.490;19.030;2022-11-18T00:40:44;30.90;;;18.20;;
67979;SDS011;54760;47.490;19.030;2022-11-18T00:43:10;27.20;;;18.27;;
67979;SDS011;54760;47.490;19.030;2022-11-18T00:45:35;28.60;;;17.77;;
67979;SDS011;54760;47.490;19.030;2022-11-18T00:48:00;25.88;;;16.70;;
67979;SDS011;54760;47.490;19.030;2022-11-18T00:50:27;27.75;;;17.73;;
67979;SDS011;54760;47.490;19.030;2022-11-18T00:52:52;26.25;;;16.75;;
67979;SDS011;54760;47.490;19.030;2022-11-18T00:55:17;24.77;;;16.98;;
67979;SDS011;54760;47.490;19.030;2022-11-18T00:57:43;26.23;;;16.52;;
67979;SDS011;54760;47.490;19.030;2022-11-18T01:00:08;25.48;;;16.40;;
67979;SDS011;54760;47.490;19.030;2022-11-18T01:02:34;28.80;;;16.65;;
67979;SDS011;54760;47.490;19.030;2022-11-18T01:05:00;26.50;;;16.75;;
67979;SDS011;54760;47.490;19.030;2022-11-18T01:07:25;27.05;;;17.00;;
67979;SDS011;54760;47.490;19.030;2022-11-18T01:09:51;24.52;;;15.70;;
67979;SDS011;54760;47.490;19.030;2022-11-18T01:12:16;25.12;;;15.75;;
67979;SDS011;54760;47.490;19.030;2022-11-18T01:15:00;21.58;;;14.55;;
67979;SDS011;54760;47.490;19.030;2022-11-18T01:17:28;23.27;;;15.50;;
67979;SDS011;54760;47.490;19.030;2022-11-18T01:19:54;21.92;;;15.63;;
67979;SDS011;54760;47.490;19.030;2022-11-18T01:22:19;26.67;;;16.48;;
67979;SDS011;54760;47.490;19.030;2022-11-18T01:24:44;26.75;;;16.98;;
67979;SDS011;54760;47.490;19.030;2022-11-18T01:27:10;25.30;;;16.00;;
67979;SDS011;54760;47.490;19.030;2022-11-18T01:29:35;24.75;;;16.65;;
67979;SDS011;54760;47.490;19.030;2022-11-18T01:32:00;31.60;;;17.12;;
67979;SDS011;54760;47.490;19.030;2022-11-18T01:34:26;25.83;;;16.35;;
67979;SDS011;54760;47.490;19.030;2022-11-18T01:36:53;26.25;;;17.17;;
67979;SDS011;54760;47.490;19.030;2022-11-18T01:39:18;28.00;;;17.35;;
67979;SDS011;54760;47.490;19.030;2022-11-18T01:41:43;24.35;;;15.75;;
67979;SDS011;54760;47.490;19.030;2022-11-18T01:47:12;25.30;;;16.50;;
67979;SDS011;54760;47.490;19.030;2022-11-18T01:49:38;27.50;;;16.45;;
67979;SDS011;54760;47.490;19.030;2022-11-18T01:52:03;25.02;;;16.52;;
67979;SDS011;54760;47.490;19.030;2022-11-18T01:54:30;23.12;;;16.08;;
67979;SDS011;54760;47.490;19.030;2022-11-18T01:57:01;28.98;;;16.67;;
67979;SDS011;54760;47.490;19.030;2022-11-18T01:59:32;25.70;;;16.87;;
67979;SDS011;54760;47.490;19.030;2022-11-18T02:02:04;27.23;;;15.80;;
67979;SDS011;54760;47.490;19.030;2022-11-18T02:04:33;29.27;;;16.90;;
67979;SDS011;54760;47.490;19.030;2022-11-18T02:06:58;24.20;;;16.37;;
67979;SDS011;54760;47.490;19.030;2022-11-18T02:09:24;25.95;;;15.77;;
67979;SDS011;54760;47.490;19.030;2022-11-18T02:11:49;26.42;;;15.77;;
67979;SDS011;54760;47.490;19.030;2022-11-18T02:14:15;22.87;;;14.32;;
67979;SDS011;54760;47.490;19.030;2022-11-18T02:30:22;21.23;;;14.05;;
67979;SDS011;54760;47.490;19.030;2022-11-18T02:33:01;21.55;;;13.85;;
67979;SDS011;54760;47.490;19.030;2022-11-18T02:35:37;20.88;;;13.85;;
67979;SDS011;54760;47.490;19.030;2022-11-18T02:38:18;22.23;;;14.43;;
67979;SDS011;54760;47.490;19.030;2022-11-18T02:40:52;21.83;;;14.75;;
67979;SDS011;54760;47.490;19.030;2022-11-18T02:43:29;22.35;;;14.43;;
67979;SDS011;54760;47.490;19.030;2022-11-18T02:46:17;24.02;;;14.43;;
67979;SDS011;54760;47.490;19.030;2022-11-18T02:48:49;20.75;;;13.70;;
67979;SDS011;54760;47.490;19.030;2022-11-18T02:51:17;21.52;;;13.68;;
67979;SDS011;54760;47.490;19.030;2022-11-18T02:53:47;18.33;;;12.82;;
67979;SDS011;54760;47.490;19.030;2022-11-18T02:56:14;18.05;;;12.13;;
67979;SDS011;54760;47.490;19.030;2022-11-18T02:58:42;19.90;;;12.00;;
67979;SDS011;54760;47.490;19.030;2022-11-18T03:01:18;23.08;;;12.50;;
67979;SDS011;54760;47.490;19.030;2022-11-18T03:03:45;17.20;;;11.52;;
67979;SDS011;54760;47.490;19.030;2022-11-18T03:09:40;20.92;;;12.43;;
67979;SDS011;54760;47.490;19.030;2022-11-18T03:17:31;19.98;;;12.00;;
67979;SDS011;54760;47.490;19.030;2022-11-18T03:20:06;18.17;;;12.50;;
67979;SDS011;54760;47.490;19.030;2022-11-18T03:22:53;19.85;;;13.38;;
67979;SDS011;54760;47.490;19.030;2022-11-18T03:27:59;20.58;;;14.30;;
67979;SDS011;54760;47.490;19.030;2022-11-18T03:30:30;27.55;;;15.35;;
67979;SDS011;54760;47.490;19.030;2022-11-18T03:33:00;24.92;;;16.12;;
67979;SDS011;54760;47.490;19.030;2022-11-18T03:35:30;25.98;;;16.00;;
67979;SDS011;54760;47.490;19.030;2022-11-18T03:38:00;29.00;;;18.73;;
67979;SDS011;54760;47.490;19.030;2022-11-18T03:40:31;28.87;;;18.98;;
67979;SDS011;54760;47.490;19.030;2022-11-18T03:43:05;33.78;;;19.17;;
67979;SDS011;54760;47.490;19.030;2022-11-18T03:45:36;29.27;;;20.00;;
67979;SDS011;54760;47.490;19.030;2022-11-18T03:48:46;28.90;;;19.10;;
67979;SDS011;54760;47.490;19.030;2022-11-18T03:51:08;32.37;;;20.93;;
67979;SDS011;54760;47.490;19.030;2022-11-18T03:53:38;31.00;;;21.52;;
67979;SDS011;54760;47.490;19.030;2022-11-18T03:56:09;33.38;;;21.52;;
67979;SDS011;54760;47.490;19.030;2022-11-18T03:58:41;32.92;;;20.77;;
67979;SDS011;54760;47.490;19.030;2022-11-18T04:01:17;32.78;;;20.08;;
67979;SDS011;54760;47.490;19.030;2022-11-18T04:03:48;36.25;;;21.25;;
67979;SDS011;54760;47.490;19.030;2022-11-18T04:08:49;37.95;;;22.10;;
67979;SDS011;54760;47.490;19.030;2022-11-18T04:11:25;34.30;;;21.92;;
67979;SDS011;54760;47.490;19.030;2022-11-18T04:14:18;35.13;;;21.17;;
67979;SDS011;54760;47.490;19.030;2022-11-18T04:16:49;35.75;;;22.80;;
67979;SDS011;54760;47.490;19.030;2022-11-18T04:19:16;33.95;;;22.02;;
67979;SDS011;54760;47.490;19.030;2022-11-18T04:21:41;34.20;;;21.98;;
67979;SDS011;54760;47.490;19.030;2022-11-18T04:24:06;36.25;;;22.77;;
67979;SDS011;54760;47.490;19.030;2022-11-18T04:26:32;36.60;;;21.92;;
67979;SDS011;54760;47.490;19.030;2022-11-18T04:28:57;40.78;;;23.95;;
67979;SDS011;54760;47.490;19.030;2022-11-18T04:31:23;40.55;;;22.77;;
67979;SDS011;54760;47.490;19.030;2022-11-18T04:33:48;36.97;;;22.55;;
67979;SDS011;54760;47.490;19.030;2022-11-18T04:36:13;39.20;;;23.67;;
67979;SDS011;54760;47.490;19.030;2022-11-18T04:38:39;42.72;;;23.70;;
67979;SDS011;54760;47.490;19.030;2022-11-18T04:41:04;41.58;;;22.92;;
67979;SDS011;54760;47.490;19.030;2022-11-18T04:43:29;43.80;;;23.83;;
67979;SDS011;54760;47.490;19.030;2022-11-18T04:45:55;41.05;;;24.48;;
67979;SDS011;54760;47.490;19.030;2022-11-18T04:48:20;44.78;;;23.67;;
67979;SDS011;54760;47.490;19.030;2022-11-18T04:50:45;44.88;;;24.90;;
67979;SDS011;54760;47.490;19.030;2022-11-18T04:53:11;42.53;;;23.90;;
67979;SDS011;54760;47.490;19.030;2022-11-18T04:55:36;41.25;;;24.30;;
67979;SDS011;54760;47.490;19.030;2022-11-18T04:58:02;54.13;;;24.25;;
67979;SDS011;54760;47.490;19.030;2022-11-18T05:00:27;51.58;;;24.95;;
67979;SDS011;54760;47.490;19.030;2022-11-18T05:02:53;48.63;;;25.48;;
67979;SDS011;54760;47.490;19.030;2022-11-18T05:05:19;48.53;;;25.02;;
67979;SDS011;54760;47.490;19.030;2022-11-18T05:07:44;48.60;;;24.63;;
67979;SDS011;54760;47.490;19.030;2022-11-18T05:10:10;54.15;;;25.65;;
67979;SDS011;54760;47.490;19.030;2022-11-18T05:12:35;46.25;;;24.15;;
67979;SDS011;54760;47.490;19.030;2022-11-18T05:15:12;49.13;;;25.98;;
67979;SDS011;54760;47.490;19.030;2022-11-18T05:17:38;53.70;;;26.87;;
67979;SDS011;54760;47.490;19.030;2022-11-18T05:20:04;55.38;;;27.45;;
67979;SDS011;54760;47.490;19.030;2022-11-18T05:22:29;56.92;;;25.73;;
67979;SDS011;54760;47.490;19.030;2022-11-18T05:24:55;58.15;;;26.95;;
67979;SDS011;54760;47.490;19.030;2022-11-18T05:27:20;46.45;;;24.98;;
67979;SDS011;54760;47.490;19.030;2022-11-18T05:29:45;58.40;;;26.73;;
67979;SDS011;54760;47.490;19.030;2022-11-18T05:32:11;55.10;;;27.08;;
67979;SDS011;54760;47.490;19.030;2022-11-18T05:34:37;56.80;;;26.45;;
67979;SDS011;54760;47.490;19.030;2022-11-18T05:37:04;57.92;;;28.02;;
67979;SDS011;54760;47.490;19.030;2022-11-18T05:39:30;57.58;;;27.27;;
67979;SDS011;54760;47.490;19.030;2022-11-18T05:41:56;58.55;;;27.50;;
67979;SDS011;54760;47.490;19.030;2022-11-18T05:44:41;52.78;;;26.02;;
67979;SDS011;54760;47.490;19.030;2022-11-18T05:47:06;55.05;;;26.70;;
67979;SDS011;54760;47.490;19.030;2022-11-18T05:49:31;54.10;;;25.90;;
67979;SDS011;54760;47.490;19.030;2022-11-18T05:51:57;53.10;;;26.62;;
67979;SDS011;54760;47.490;19.030;2022-11-18T05:54:22;60.15;;;27.50;;
67979;SDS011;54760;47.490;19.030;2022-11-18T05:56:47;51.53;;;25.25;;
67979;SDS011;54760;47.490;19.030;2022-11-18T05:59:13;46.47;;;24.73;;
67979;SDS011;54760;47.490;19.030;2022-11-18T06:01:41;45.42;;;22.25;;
67979;SDS011;54760;47.490;19.030;2022-11-18T06:04:08;42.22;;;21.55;;
67979;SDS011;54760;47.490;19.030;2022-11-18T06:06:46;41.65;;;21.62;;
67979;SDS011;54760;47.490;19.030;2022-11-18T06:09:16;39.20;;;20.95;;
67979;SDS011;54760;47.490;19.030;2022-11-18T06:11:48;38.40;;;21.25;;
67979;SDS011;54760;47.490;19.030;2022-11-18T06:14:39;37.40;;;20.70;;
67979;SDS011;54760;47.490;19.030;2022-11-18T06:17:13;35.38;;;20.35;;
67979;SDS011;54760;47.490;19.030;2022-11-18T06:19:43;50.97;;;21.02;;
67979;SDS011;54760;47.490;19.030;2022-11-18T06:22:09;41.65;;;20.90;;
67979;SDS011;54760;47.490;19.030;2022-11-18T06:24:35;36.40;;;20.17;;
67979;SDS011;54760;47.490;19.030;2022-11-18T06:27:01;37.50;;;21.15;;
67979;SDS011;54760;47.490;19.030;2022-11-18T06:29:27;36.45;;;20.50;;
67979;SDS011;54760;47.490;19.030;2022-11-18T06:31:54;41.58;;;21.08;;
67979;SDS011;54760;47.490;19.030;2022-11-18T06:34:20;38.08;;;21.15;;
67979;SDS011;54760;47.490;19.030;2022-11-18T06:36:45;34.45;;;19.33;;
67979;SDS011;54760;47.490;19.030;2022-11-18T06:39:10;38.63;;;21.37;;
67979;SDS011;54760;47.490;19.030;2022-11-18T06:41:36;38.90;;;20.62;;
67979;SDS011;54760;47.490;19.030;2022-11-18T06:44:01;36.13;;;19.25;;
67979;SDS011;54760;47.490;19.030;2022-11-18T06:46:26;35.95;;;19.75;;
67979;SDS011;54760;47.490;19.030;2022-11-18T06:49:11;37.70;;;20.58;;
67979;SDS011;54760;47.490;19.030;2022-11-18T06:51:36;38.80;;;20.05;;
67979;SDS011;54760;47.490;19.030;2022-11-18T06:54:03;37.10;;;19.83;;
67979;SDS011;54760;47.490;19.030;2022-11-18T06:56:30;35.78;;;20.10;;
67979;SDS011;54760;47.490;19.030;2022-11-18T06:58:56;33.70;;;18.15;;
67979;SDS011;54760;47.490;19.030;2022-11-18T07:01:26;34.65;;;18.60;;
67979;SDS011;54760;47.490;19.030;2022-11-18T07:03:54;38.00;;;19.83;;
67979;SDS011;54760;47.490;19.030;2022-11-18T07:06:23;32.72;;;18.92;;
67979;SDS011;54760;47.490;19.030;2022-11-18T07:08:50;38.88;;;18.67;;
67979;SDS011;54760;47.490;19.030;2022-11-18T07:11:17;36.67;;;18.92;;
67979;SDS011;54760;47.490;19.030;2022-11-18T07:13:45;36.20;;;18.65;;
67979;SDS011;54760;47.490;19.030;2022-11-18T07:16:15;31.77;;;17.17;;
67979;SDS011;54760;47.490;19.030;2022-11-18T07:18:43;34.53;;;18.15;;
67979;SDS011;54760;47.490;19.030;2022-11-18T07:21:18;36.83;;;17.50;;
67979;SDS011;54760;47.490;19.030;2022-11-18T07:23:46;31.85;;;17.30;;
67979;SDS011;54760;47.490;19.030;2022-11-18T07:26:12;34.75;;;17.05;;
67979;SDS011;54760;47.490;19.030;2022-11-18T07:28:38;34.33;;;17.70;;
67979;SDS011;54760;47.490;19.030;2022-11-18T07:33:29;33.63;;;17.15;;
67979;SDS011;54760;47.490;19.030;2022-11-18T07:35:59;33.17;;;17.85;;
67979;SDS011;54760;47.490;19.030;2022-11-18T07:38:29;36.13;;;19.08;;
67979;SDS011;54760;47.490;19.030;2022-11-18T07:40:54;37.35;;;16.83;;
67979;SDS011;54760;47.490;19.030;2022-11-18T07:43:26;40.38;;;18.67;;
67979;SDS011;54760;47.490;19.030;2022-11-18T07:45:51;33.22;;;16.75;;
67979;SDS011;54760;47.490;19.030;2022-11-18T07:48:17;36.05;;;18.40;;
67979;SDS011;54760;47.490;19.030;2022-11-18T07:50:42;34.80;;;17.42;;
67979;SDS011;54760;47.490;19.030;2022-11-18T07:53:07;32.90;;;17.90;;
67979;SDS011;54760;47.490;19.030;2022-11-18T07:55:33;33.05;;;17.70;;
67979;SDS011;54760;47.490;19.030;2022-11-18T07:57:58;32.95;;;15.98;;
67979;SDS011;54760;47.490;19.030;2022-11-18T08:00:23;29.87;;;17.25;;
67979;SDS011;54760;47.490;19.030;2022-11-18T08:02:49;29.60;;;16.50;;
67979;SDS011;54760;47.490;19.030;2022-11-18T08:05:15;31.60;;;16.65;;
67979;SDS011;54760;47.490;19.030;2022-11-18T08:07:40;28.60;;;16.20;;
67979;SDS011;54760;47.490;19.030;2022-11-18T08:10:06;30.37;;;17.40;;
67979;SDS011;54760;47.490;19.030;2022-11-18T08:12:31;31.75;;;15.70;;
67979;SDS011;54760;47.490;19.030;2022-11-18T08:14:57;29.87;;;16.15;;
67979;SDS011;54760;47.490;19.030;2022-11-18T08:17:22;32.63;;;16.17;;
67979;SDS011;54760;47.490;19.030;2022-11-18T08:19:48;27.87;;;15.38;;
67979;SDS011;54760;47.490;19.030;2022-11-18T08:22:13;32.80;;;17.02;;
67979;SDS011;54760;47.490;19.030;2022-11-18T08:24:40;33.03;;;16.48;;
67979;SDS011;54760;47.490;19.030;2022-11-18T08:27:06;31.50;;;17.02;;
67979;SDS011;54760;47.490;19.030;2022-11-18T08:29:31;32.22;;;15.98;;
67979;SDS011;54760;47.490;19.030;2022-11-18T08:31:57;33.45;;;16.23;;
67979;SDS011;54760;47.490;19.030;2022-11-18T08:34:22;30.42;;;16.48;;
67979;SDS011;54760;47.490;19.030;2022-11-18T08:36:47;33.90;;;15.60;;
67979;SDS011;54760;47.490;19.030;2022-11-18T08:39:13;30.30;;;14.98;;
67979;SDS011;54760;47.490;19.030;2022-11-18T08:41:40;35.60;;;16.48;;
67979;SDS011;54760;47.490;19.030;2022-11-18T08:44:07;32.70;;;16.45;;
67979;SDS011;54760;47.490;19.030;2022-11-18T08:46:35;30.17;;;16.00;;
67979;SDS011;54760;47.490;19.030;2022-11-18T08:49:01;26.65;;;15.25;;
67979;SDS011;54760;47.490;19.030;2022-11-18T08:51:26;31.30;;;15.25;;
67979;SDS011;54760;47.490;19.030;2022-11-18T08:53:52;31.10;;;14.85;;
67979;SDS011;54760;47.490;19.030;2022-11-18T08:56:19;28.38;;;14.48;;
67979;SDS011;54760;47.490;19.030;2022-11-18T08:58:45;31.30;;;14.90;;
67979;SDS011;54760;47.490;19.030;2022-11-18T09:01:11;31.87;;;15.60;;
67979;SDS011;54760;47.490;19.030;2022-11-18T09:03:37;32.38;;;14.73;;
67979;SDS011;54760;47.490;19.030;2022-11-18T09:06:12;26.17;;;14.75;;
67979;SDS011;54760;47.490;19.030;2022-11-18T09:08:39;25.85;;;14.02;;
67979;SDS011;54760;47.490;19.030;2022-11-18T09:11:09;25.95;;;14.57;;
67979;SDS011;54760;47.490;19.030;2022-11-18T09:13:39;27.95;;;14.60;;
67979;SDS011;54760;47.490;19.030;2022-11-18T09:16:05;25.60;;;13.65;;
67979;SDS011;54760;47.490;19.030;2022-11-18T09:18:30;25.05;;;12.50;;
67979;SDS011;54760;47.490;19.030;2022-11-18T09:20:56;26.52;;;14.18;;
67979;SDS011;54760;47.490;19.030;2022-11-18T09:23:26;24.85;;;13.13;;
67979;SDS011;54760;47.490;19.030;2022-11-18T09:25:59;24.60;;;12.93;;
67979;SDS011;54760;47.490;19.030;2022-11-18T09:28:26;25.80;;;13.55;;
67979;SDS011;54760;47.490;19.030;2022-11-18T09:30:52;24.73;;;12.50;;
67979;SDS011;54760;47.490;19.030;2022-11-18T09:33:17;24.37;;;13.57;;
67979;SDS011;54760;47.490;19.030;2022-11-18T09:35:42;18.98;;;11.27;;
67979;SDS011;54760;47.490;19.030;2022-11-18T09:38:08;18.77;;;10.82;;
67979;SDS011;54760;47.490;19.030;2022-11-18T09:40:47;23.55;;;12.48;;
67979;SDS011;54760;47.490;19.030;2022-11-18T09:49:14;23.42;;;13.10;;
67979;SDS011;54760;47.490;19.030;2022-11-18T09:51:46;23.23;;;12.70;;
67979;SDS011;54760;47.490;19.030;2022-11-18T09:54:21;24.35;;;14.00;;
67979;SDS011;54760;47.490;19.030;2022-11-18T09:56:49;22.52;;;13.13;;
67979;SDS011;54760;47.490;19.030;2022-11-18T09:59:17;26.52;;;13.62;;
67979;SDS011;54760;47.490;19.030;2022-11-18T10:01:45;26.33;;;15.93;;
67979;SDS011;54760;47.490;19.030;2022-11-18T10:04:13;24.15;;;13.20;;
67979;SDS011;54760;47.490;19.030;2022-11-18T10:06:43;21.77;;;13.05;;
67979;SDS011;54760;47.490;19.030;2022-11-18T10:09:16;26.33;;;13.48;;
67979;SDS011;54760;47.490;19.030;2022-11-18T10:25:44;21.48;;;11.52;;
67979;SDS011;54760;47.490;19.030;2022-11-18T10:30:40;25.67;;;13.20;;
67979;SDS011;54760;47.490;19.030;2022-11-18T10:35:47;23.77;;;13.90;;
67979;SDS011;54760;47.490;19.030;2022-11-18T10:40:46;26.98;;;14.70;;
67979;SDS011;54760;47.490;19.030;2022-11-18T10:51:41;24.48;;;14.40;;
67979;SDS011;54760;47.490;19.030;2022-11-18T10:54:13;24.33;;;13.55;;
67979;SDS011;54760;47.490;19.030;2022-11-18T10:59:16;24.77;;;13.15;;
67979;SDS011;54760;47.490;19.030;2022-11-18T11:02:02;23.35;;;13.85;;
67979;SDS011;54760;47.490;19.030;2022-11-18T11:04:28;25.65;;;14.55;;
67979;SDS011;54760;47.490;19.030;2022-11-18T11:06:55;24.92;;;13.35;;
67979;SDS011;54760;47.490;19.030;2022-11-18T11:09:24;26.20;;;14.85;;
67979;SDS011;54760;47.490;19.030;2022-11-18T11:11:55;27.58;;;14.73;;
67979;SDS011;54760;47.490;19.030;2022-11-18T11:14:27;25.35;;;14.52;;
67979;SDS011;54760;47.490;19.030;2022-11-18T11:17:05;23.67;;;13.60;;
67979;SDS011;54760;47.490;19.030;2022-11-18T11:19:42;22.45;;;12.90;;
67979;SDS011;54760;47.490;19.030;2022-11-18T11:22:19;20.87;;;11.73;;
67979;SDS011;54760;47.490;19.030;2022-11-18T11:24:44;21.77;;;12.15;;
67979;SDS011;54760;47.490;19.030;2022-11-18T11:30:21;21.15;;;12.23;;
67979;SDS011;54760;47.490;19.030;2022-11-18T11:32:53;19.45;;;11.90;;
67979;SDS011;54760;47.490;19.030;2022-11-18T11:38:16;23.10;;;11.98;;
67979;SDS011;54760;47.490;19.030;2022-11-18T11:51:31;18.73;;;11.48;;
67979;SDS011;54760;47.490;19.030;2022-11-18T11:57:01;21.05;;;11.98;;
67979;SDS011;54760;47.490;19.030;2022-11-18T11:59:45;18.55;;;11.88;;
67979;SDS011;54760;47.490;19.030;2022-11-18T12:07:50;16.33;;;10.93;;
67979;SDS011;54760;47.490;19.030;2022-11-18T12:15:47;16.08;;;10.43;;
67979;SDS011;54760;47.490;19.030;2022-11-18T12:18:30;15.35;;;9.77;;
67979;SDS011;54760;47.490;19.030;2022-11-18T12:26:51;13.57;;;9.48;;
67979;SDS011;54760;47.490;19.030;2022-11-18T12:31:42;13.07;;;8.90;;
67979;SDS011;54760;47.490;19.030;2022-11-18T12:34:25;11.05;;;7.87;;
67979;SDS011;54760;47.490;19.030;2022-11-18T12:36:56;9.65;;;7.07;;
67979;SDS011;54760;47.490;19.030;2022-11-18T12:39:55;11.48;;;8.13;;
67979;SDS011;54760;47.490;19.030;2022-11-18T12:42:37;11.88;;;7.68;;
67979;SDS011;54760;47.490;19.030;2022-11-18T12:50:53;10.57;;;7.18;;
67979;SDS011;54760;47.490;19.030;2022-11-18T12:53:38;10.63;;;7.30;;
67979;SDS011;54760;47.490;19.030;2022-11-18T12:56:22;8.93;;;6.43;;
67979;SDS011;54760;47.490;19.030;2022-11-18T12:58:58;8.68;;;6.87;;
67979;SDS011;54760;47.490;19.030;2022-11-18T13:01:25;10.75;;;6.93;;
67979;SDS011;54760;47.490;19.030;2022-11-18T13:04:04;11.52;;;8.07;;
67979;SDS011;54760;47.490;19.030;2022-11-18T13:06:32;11.65;;;7.43;;
67979;SDS011;54760;47.490;19.030;2022-11-18T13:09:00;13.70;;;7.53;;
67979;SDS011;54760;47.490;19.030;2022-11-18T13:11:29;12.18;;;7.55;;
67979;SDS011;54760;47.490;19.030;2022-11-18T13:14:29;10.68;;;7.25;;
67979;SDS011;54760;47.490;19.030;2022-11-18T13:25:43;9.43;;;6.90;;
67979;SDS011;54760;47.490;19.030;2022-11-18T13:30:44;8.27;;;6.07;;
67979;SDS011;54760;47.490;19.030;2022-11-18T13:33:18;7.95;;;6.05;;
67979;SDS011;54760;47.490;19.030;2022-11-18T13:35:43;10.07;;;6.95;;
67979;SDS011;54760;47.490;19.030;2022-11-18T13:38:17;9.70;;;7.32;;
67979;SDS011;54760;47.490;19.030;2022-11-18T13:40:45;10.27;;;7.82;;
67979;SDS011;54760;47.490;19.030;2022-11-18T13:43:30;13.18;;;7.78;;
67979;SDS011;54760;47.490;19.030;2022-11-18T13:45:59;11.45;;;7.55;;
67979;SDS011;54760;47.490;19.030;2022-11-18T13:48:29;11.05;;;7.80;;
67979;SDS011;54760;47.490;19.030;2022-11-18T13:50:57;10.48;;;7.57;;
67979;SDS011;54760;47.490;19.030;2022-11-18T13:53:27;12.40;;;8.25;;
67979;SDS011;54760;47.490;19.030;2022-11-18T13:55:55;11.95;;;7.75;;
67979;SDS011;54760;47.490;19.030;2022-11-18T14:01:14;12.52;;;7.70;;
67979;SDS011;54760;47.490;19.030;2022-11-18T14:04:00;10.70;;;7.40;;
67979;SDS011;54760;47.490;19.030;2022-11-18T14:06:34;11.12;;;6.93;;
67979;SDS011;54760;47.490;19.030;2022-11-18T14:09:15;10.93;;;7.10;;
67979;SDS011;54760;47.490;19.030;2022-11-18T14:11:55;12.07;;;7.75;;
67979;SDS011;54760;47.490;19.030;2022-11-18T14:14:27;11.55;;;7.68;;
67979;SDS011;54760;47.490;19.030;2022-11-18T14:17:23;12.80;;;8.32;;
67979;SDS011;54760;47.490;19.030;2022-11-18T14:19:50;13.15;;;8.30;;
67979;SDS011;54760;47.490;19.030;2022-11-18T14:22:24;11.63;;;8.00;;
67979;SDS011;54760;47.490;19.030;2022-11-18T14:24:59;17.65;;;8.88;;
67979;SDS011;54760;47.490;19.030;2022-11-18T14:27:37;15.55;;;9.80;;
67979;SDS011;54760;47.490;19.030;2022-11-18T14:35:42;13.18;;;9.23;;
67979;SDS011;54760;47.490;19.030;2022-11-18T14:38:12;14.18;;;9.20;;
67979;SDS011;54760;47.490;19.030;2022-11-18T14:40:43;14.82;;;9.35;;
67979;SDS011;54760;47.490;19.030;2022-11-18T14:43:09;13.35;;;9.90;;
67979;SDS011;54760;47.490;19.030;2022-11-18T14:45:37;14.43;;;9.52;;
67979;SDS011;54760;47.490;19.030;2022-11-18T14:48:03;16.62;;;9.68;;
67979;SDS011;54760;47.490;19.030;2022-11-18T14:50:29;15.10;;;10.60;;
67979;SDS011;54760;47.490;19.030;2022-11-18T14:52:54;13.70;;;9.65;;
67979;SDS011;54760;47.490;19.030;2022-11-18T14:55:20;15.85;;;10.15;;
67979;SDS011;54760;47.490;19.030;2022-11-18T14:57:45;13.18;;;9.90;;
67979;SDS011;54760;47.490;19.030;2022-11-18T15:00:11;19.98;;;12.35;;
67979;SDS011;54760;47.490;19.030;2022-11-18T15:02:38;15.90;;;9.88;;
67979;SDS011;54760;47.490;19.030;2022-11-18T15:05:04;14.95;;;10.43;;
67979;SDS011;54760;47.490;19.030;2022-11-18T15:07:29;16.10;;;10.57;;
67979;SDS011;54760;47.490;19.030;2022-11-18T15:09:55;18.87;;;11.23;;
67979;SDS011;54760;47.490;19.030;2022-11-18T15:12:20;15.32;;;10.82;;
67979;SDS011;54760;47.490;19.030;2022-11-18T15:14:45;16.75;;;11.68;;
67979;SDS011;54760;47.490;19.030;2022-11-18T15:17:11;17.50;;;11.38;;
67979;SDS011;54760;47.490;19.030;2022-11-18T15:19:37;17.42;;;11.85;;
67979;SDS011;54760;47.490;19.030;2022-11-18T15:22:04;17.42;;;11.93;;
67979;SDS011;54760;47.490;19.030;2022-11-18T15:24:30;19.77;;;11.70;;
67979;SDS011;54760;47.490;19.030;2022-11-18T15:26:55;19.40;;;12.68;;
67979;SDS011;54760;47.490;19.030;2022-11-18T15:29:21;19.95;;;12.05;;
67979;SDS011;54760;47.490;19.030;2022-11-18T15:31:49;18.58;;;11.80;;
67979;SDS011;54760;47.490;19.030;2022-11-18T15:34:15;18.90;;;11.40;;
67979;SDS011;54760;47.490;19.030;2022-11-18T15:36:42;19.10;;;12.30;;
67979;SDS011;54760;47.490;19.030;2022-11-18T15:39:08;19.10;;;12.10;;
67979;SDS011;54760;47.490;19.030;2022-11-18T15:41:34;18.90;;;12.75;;
67979;SDS011;54760;47.490;19.030;2022-11-18T15:43:59;18.83;;;11.57;;
67979;SDS011;54760;47.490;19.030;2022-11-18T15:46:27;16.10;;;11.12;;
67979;SDS011;54760;47.490;19.030;2022-11-18T15:48:54;19.37;;;12.80;;
67979;SDS011;54760;47.490;19.030;2022-11-18T15:51:21;19.33;;;12.10;;
67979;SDS011;54760;47.490;19.030;2022-11-18T15:53:48;18.67;;;12.60;;
67979;SDS011;54760;47.490;19.030;2022-11-18T15:56:24;22.60;;;13.73;;
67979;SDS011;54760;47.490;19.030;2022-11-18T15:58:55;22.30;;;13.40;;
67979;SDS011;54760;47.490;19.030;2022-11-18T16:01:26;23.40;;;13.10;;
67979;SDS011;54760;47.490;19.030;2022-11-18T16:03:53;19.73;;;13.07;;
67979;SDS011;54760;47.490;19.030;2022-11-18T16:06:19;23.33;;;13.52;;
67979;SDS011;54760;47.490;19.030;2022-11-18T16:08:45;19.42;;;13.13;;
67979;SDS011;54760;47.490;19.030;2022-11-18T16:11:11;23.98;;;14.20;;
67979;SDS011;54760;47.490;19.030;2022-11-18T16:16:29;21.73;;;14.13;;
67979;SDS011;54760;47.490;19.030;2022-11-18T16:18:58;21.45;;;13.85;;
67979;SDS011;54760;47.490;19.030;2022-11-18T16:21:25;21.67;;;13.30;;
67979;SDS011;54760;47.490;19.030;2022-11-18T16:23:55;23.98;;;14.82;;
67979;SDS011;54760;47.490;19.030;2022-11-18T16:26:22;24.02;;;14.02;;
67979;SDS011;54760;47.490;19.030;2022-11-18T16:28:48;24.30;;;14.60;;
67979;SDS011;54760;47.490;19.030;2022-11-18T16:31:14;22.77;;;14.30;;
67979;SDS011;54760;47.490;19.030;2022-11-18T16:33:57;24.50;;;14.65;;
67979;SDS011;54760;47.490;19.030;2022-11-18T16:36:26;27.92;;;15.57;;
67979;SDS011;54760;47.490;19.030;2022-11-18T16:38:51;27.13;;;15.63;;
67979;SDS011;54760;47.490;19.030;2022-11-18T16:41:17;26.00;;;15.23;;